Time;durP1;ratioP1;P1;durP2;ratioP2;P2;SDS_P1;SDS_P2;PMS_P1;PMS_P2;Temp;Humidity;BMP_temperature;BMP_pressure;BME280_temperature;BME280_humidity;BME280_pressure;Samples;Min_cycle;Max_cycle;Signal;HPM_P1;HPM_P2
2022/09/11 00:00:32;;;;;;;;;;;20.40;61.40;;;;;;4915397;29;19915;-69
2022/09/11 00:02:58;;;;;;;;;;;20.50;61.60;;;;;;4915606;29;19915;-69
2022/09/11 00:05:24;;;;;;;;;;;20.40;61.70;;;;;;4915783;29;19969;-70
2022/09/11 00:07:50;;;;;;;;;;;20.40;61.50;;;;;;4915575;29;19916;-70
2022/09/11 00:10:16;;;;;;;;;;;20.40;62.20;;;;;;4915185;29;20430;-70
2022/09/11 00:12:42;;;;;;;;;;;20.40;62.10;;;;;;4915353;29;19958;-70
2022/09/11 00:15:08;;;;;;;;;;;20.30;62.30;;;;;;4915348;29;20406;-70
2022/09/11 00:17:33;;;;;;;;;;;20.30;62.50;;;;;;4915384;29;19922;-70
2022/09/11 00:20:00;;;;;;;;;;;20.30;62.20;;;;;;4918028;29;19919;-70
2022/09/11 00:22:26;;;;;;;;;;;20.40;61.10;;;;;;4904331;29;19926;-70
2022/09/11 00:24:51;;;;;;;;;;;20.40;61.00;;;;;;4918695;29;20299;-70
2022/09/11 00:27:17;;;;;;;;;;;20.30;60.70;;;;;;4918648;29;19915;-69
2022/09/11 00:29:42;;;;;;;;;;;20.40;61.30;;;;;;4918535;29;20077;-69
2022/09/11 00:32:09;;;;;;;;;;;20.20;61.60;;;;;;4918555;29;19962;-68
2022/09/11 00:34:35;;;;;;;;;;;20.30;61.40;;;;;;4918744;29;19918;-70
2022/09/11 00:37:02;;;;;;;;;;;20.30;60.80;;;;;;4918704;29;19911;-69
2022/09/11 00:39:27;;;;;;;;;;;20.20;61.40;;;;;;4918281;29;19974;-69
2022/09/11 00:41:54;;;;;;;;;;;20.20;61.80;;;;;;4918418;29;19916;-69
2022/09/11 00:44:23;;;;;;;;;;;20.30;62.30;;;;;;4918287;29;20283;-69
2022/09/11 00:46:50;;;;;;;;;;;20.20;61.10;;;;;;4918538;29;20337;-69
2022/09/11 00:49:22;;;;;;;;;;;20.20;61.90;;;;;;4918235;29;19911;-69
2022/09/11 00:51:58;;;;;;;;;;;20.20;61.80;;;;;;4918261;29;19915;-71
2022/09/11 00:54:27;;;;;;;;;;;20.40;61.40;;;;;;4905608;29;19912;-69
2022/09/11 00:56:54;;;;;;;;;;;20.40;60.90;;;;;;4918200;29;19911;-68
2022/09/11 00:59:24;;;;;;;;;;;20.40;60.90;;;;;;4918264;29;19926;-69
2022/09/11 01:01:49;;;;;;;;;;;20.50;61.40;;;;;;4918158;29;20002;-70
2022/09/11 01:04:15;;;;;;;;;;;20.50;61.00;;;;;;4918251;29;20310;-70
2022/09/11 01:06:41;;;;;;;;;;;20.60;60.50;;;;;;4917922;29;19911;-70
2022/09/11 01:09:06;;;;;;;;;;;20.50;60.60;;;;;;4917799;29;19933;-70
2022/09/11 01:11:38;;;;;;;;;;;20.50;61.10;;;;;;4917754;29;20335;-68
2022/09/11 01:14:22;;;;;;;;;;;20.40;61.30;;;;;;4917741;29;19915;-69
2022/09/11 01:16:52;;;;;;;;;;;20.50;60.00;;;;;;4917976;29;19966;-69
2022/09/11 01:19:25;;;;;;;;;;;20.50;61.10;;;;;;4917731;29;20415;-70
2022/09/11 01:22:00;;;;;;;;;;;20.50;61.40;;;;;;4918010;29;19912;-71
2022/09/11 01:24:35;;;;;;;;;;;20.50;60.40;;;;;;4906779;29;19915;-70
2022/09/11 01:27:06;;;;;;;;;;;20.60;60.60;;;;;;4917626;29;19955;-70
2022/09/11 01:29:41;;;;;;;;;;;20.60;60.90;;;;;;4917206;29;19922;-70
2022/09/11 01:32:06;;;;;;;;;;;20.50;60.70;;;;;;4917028;29;20364;-70
2022/09/11 01:34:36;;;;;;;;;;;20.50;60.40;;;;;;4917484;29;19915;-71
2022/09/11 01:37:04;;;;;;;;;;;20.50;60.80;;;;;;4917406;29;19963;-69
2022/09/11 01:39:33;;;;;;;;;;;20.50;59.90;;;;;;4917319;29;19983;-70
2022/09/11 01:42:03;;;;;;;;;;;20.60;60.00;;;;;;4917304;29;19922;-70
2022/09/11 01:44:32;;;;;;;;;;;20.60;60.10;;;;;;4917756;29;19943;-69
2022/09/11 01:46:58;;;;;;;;;;;20.70;59.90;;;;;;4917458;29;19953;-70
2022/09/11 01:49:38;;;;;;;;;;;20.60;59.10;;;;;;4917236;29;19958;-69
2022/09/11 01:52:07;;;;;;;;;;;20.40;60.20;;;;;;4917020;29;19911;-69
2022/09/11 01:54:41;;;;;;;;;;;20.40;60.80;;;;;;4903372;29;20268;-71
2022/09/11 01:57:09;;;;;;;;;;;20.50;62.00;;;;;;4917072;29;19911;-69
2022/09/11 01:59:50;;;;;;;;;;;20.40;61.40;;;;;;4903353;29;20006;-70
2022/09/11 02:02:18;;;;;;;;;;;20.50;62.40;;;;;;4917069;29;19915;-70
2022/09/11 02:04:49;;;;;;;;;;;20.40;62.30;;;;;;4917045;29;19911;-70
2022/09/11 02:07:17;;;;;;;;;;;20.40;62.10;;;;;;4916898;29;19915;-70
2022/09/11 02:09:49;;;;;;;;;;;20.40;61.80;;;;;;4916362;29;19943;-67
2022/09/11 02:12:16;;;;;;;;;;;20.40;63.30;;;;;;4916728;29;20387;-69
2022/09/11 02:14:45;;;;;;;;;;;20.30;62.30;;;;;;4916898;29;19961;-70
2022/09/11 02:17:14;;;;;;;;;;;20.20;62.00;;;;;;4916420;29;20327;-68
2022/09/11 02:19:39;;;;;;;;;;;20.20;63.50;;;;;;4916734;29;20013;-69
2022/09/11 02:22:06;;;;;;;;;;;20.20;60.80;;;;;;4916804;29;20009;-70
2022/09/11 02:24:32;;;;;;;;;;;19.90;63.70;;;;;;4906183;29;19943;-69
2022/09/11 02:27:00;;;;;;;;;;;20.00;63.20;;;;;;4916437;29;19915;-70
2022/09/11 02:29:26;;;;;;;;;;;20.20;62.20;;;;;;4916534;29;19915;-70
2022/09/11 02:31:52;;;;;;;;;;;20.20;62.10;;;;;;4916513;29;19970;-70
2022/09/11 02:34:23;;;;;;;;;;;20.10;61.90;;;;;;4917218;29;19919;-69
2022/09/11 02:36:48;;;;;;;;;;;20.20;62.10;;;;;;4917230;29;19919;-69
2022/09/11 02:39:30;;;;;;;;;;;20.20;61.60;;;;;;4917644;29;20368;-68
2022/09/11 02:41:56;;;;;;;;;;;20.20;61.20;;;;;;4916515;29;19911;-69
2022/09/11 02:44:40;;;;;;;;;;;20.30;62.30;;;;;;4916350;29;20284;-66
2022/09/11 02:47:24;;;;;;;;;;;20.30;60.80;;;;;;4916217;29;20327;-69
2022/09/11 02:50:08;;;;;;;;;;;20.30;62.30;;;;;;4916051;29;19962;-68
2022/09/11 02:53:06;;;;;;;;;;;20.30;61.80;;;;;;4900522;29;20001;-68
2022/09/11 02:55:32;;;;;;;;;;;20.20;61.90;;;;;;4935631;29;20314;-68
2022/09/11 02:58:02;;;;;;;;;;;20.10;62.40;;;;;;4916026;29;20023;-69
2022/09/11 03:00:28;;;;;;;;;;;20.10;63.50;;;;;;4916321;29;19915;-68
2022/09/11 03:02:53;;;;;;;;;;;20.10;63.10;;;;;;4915866;29;20430;-68
2022/09/11 03:05:19;;;;;;;;;;;20.20;63.80;;;;;;4916168;29;20338;-69
2022/09/11 03:07:45;;;;;;;;;;;20.10;63.50;;;;;;4916070;29;20443;-69
2022/09/11 03:10:10;;;;;;;;;;;20.00;64.30;;;;;;4915686;29;20306;-67
2022/09/11 03:12:36;;;;;;;;;;;19.70;65.40;;;;;;4915978;29;19934;-70
2022/09/11 03:15:03;;;;;;;;;;;19.80;65.70;;;;;;4915995;29;20447;-66
2022/09/11 03:17:28;;;;;;;;;;;19.90;64.70;;;;;;4915796;29;20442;-68
2022/09/11 03:19:54;;;;;;;;;;;19.90;64.60;;;;;;4914540;29;20021;-68
2022/09/11 03:22:19;;;;;;;;;;;19.90;65.20;;;;;;4907274;29;19911;-65
2022/09/11 03:24:45;;;;;;;;;;;19.90;66.50;;;;;;4915904;29;20291;-69
2022/09/11 03:27:11;;;;;;;;;;;19.70;67.50;;;;;;4915720;29;19922;-69
2022/09/11 03:29:36;;;;;;;;;;;19.70;66.40;;;;;;4915852;29;19918;-70
2022/09/11 03:32:02;;;;;;;;;;;19.80;64.90;;;;;;4916055;29;19911;-69
2022/09/11 03:34:28;;;;;;;;;;;19.80;65.30;;;;;;4915745;29;20434;-69
2022/09/11 03:36:54;;;;;;;;;;;19.90;64.70;;;;;;4915893;29;20260;-68
2022/09/11 03:39:19;;;;;;;;;;;20.00;65.90;;;;;;4915374;29;19926;-69
2022/09/11 03:41:45;;;;;;;;;;;20.10;63.30;;;;;;4915961;29;19925;-70
2022/09/11 03:44:13;;;;;;;;;;;20.20;63.50;;;;;;4916040;29;20034;-70
2022/09/11 03:46:39;;;;;;;;;;;20.20;63.70;;;;;;4915926;29;20010;-70
2022/09/11 03:49:05;;;;;;;;;;;20.20;63.80;;;;;;4915550;29;20479;-68
2022/09/11 03:51:30;;;;;;;;;;;20.20;63.40;;;;;;4915562;29;20403;-69
2022/09/11 03:53:59;;;;;;;;;;;20.20;63.30;;;;;;4901856;29;19978;-66
2022/09/11 03:56:27;;;;;;;;;;;20.20;63.60;;;;;;4919234;29;19911;-70
2022/09/11 03:58:55;;;;;;;;;;;20.20;62.20;;;;;;4919212;29;19974;-69
2022/09/11 04:01:21;;;;;;;;;;;20.20;62.00;;;;;;4919093;29;19911;-69
2022/09/11 04:03:47;;;;;;;;;;;20.20;61.40;;;;;;4919130;29;20342;-69
2022/09/11 04:06:12;;;;;;;;;;;20.30;61.40;;;;;;4919046;29;20006;-70
2022/09/11 04:08:40;;;;;;;;;;;20.30;61.10;;;;;;4919077;28;20335;-70
2022/09/11 04:11:05;;;;;;;;;;;20.20;61.30;;;;;;4918909;29;19919;-70
2022/09/11 04:13:32;;;;;;;;;;;20.20;61.30;;;;;;4919147;29;19912;-70
2022/09/11 04:16:01;;;;;;;;;;;20.20;62.30;;;;;;4918668;29;19966;-68
2022/09/11 04:18:28;;;;;;;;;;;20.10;63.50;;;;;;4918887;29;19923;-68
2022/09/11 04:20:53;;;;;;;;;;;20.10;62.80;;;;;;4918606;29;20341;-69
2022/09/11 04:23:19;;;;;;;;;;;20.10;62.60;;;;;;4904149;29;20006;-68
2022/09/11 04:25:45;;;;;;;;;;;20.10;62.70;;;;;;4918669;29;19911;-68
2022/09/11 04:28:11;;;;;;;;;;;20.10;63.10;;;;;;4918622;29;19915;-69
2022/09/11 04:30:41;;;;;;;;;;;20.10;63.40;;;;;;4918612;29;19919;-69
2022/09/11 04:33:07;;;;;;;;;;;20.10;63.50;;;;;;4918386;29;20379;-69
2022/09/11 04:35:35;;;;;;;;;;;20.00;64.10;;;;;;4919051;29;19911;-68
2022/09/11 04:38:01;;;;;;;;;;;19.90;64.50;;;;;;4918352;29;19970;-68
2022/09/11 04:40:26;;;;;;;;;;;19.90;64.90;;;;;;4918576;29;20112;-68
2022/09/11 04:42:52;;;;;;;;;;;19.90;65.20;;;;;;4918173;29;19998;-67
2022/09/11 04:45:18;;;;;;;;;;;19.80;65.20;;;;;;4918337;29;19962;-68
2022/09/11 04:47:43;;;;;;;;;;;19.90;65.20;;;;;;4918433;29;19915;-68
2022/09/11 04:50:09;;;;;;;;;;;19.90;65.10;;;;;;4918189;29;19922;-69
2022/09/11 04:52:34;;;;;;;;;;;19.80;65.50;;;;;;4908509;29;19911;-69
2022/09/11 04:55:00;;;;;;;;;;;19.80;65.70;;;;;;4918319;29;19911;-68
2022/09/11 04:57:28;;;;;;;;;;;19.70;66.00;;;;;;4918164;29;19915;-68
2022/09/11 04:59:54;;;;;;;;;;;19.70;65.90;;;;;;4917847;29;19919;-67
2022/09/11 05:02:21;;;;;;;;;;;19.80;65.70;;;;;;4917963;29;19911;-68
2022/09/11 05:04:47;;;;;;;;;;;19.70;65.70;;;;;;4917700;29;19911;-68
2022/09/11 05:07:13;;;;;;;;;;;19.80;65.50;;;;;;4917973;29;19912;-68
2022/09/11 05:09:39;;;;;;;;;;;19.90;65.70;;;;;;4917691;29;19978;-68
2022/09/11 05:12:04;;;;;;;;;;;19.90;65.30;;;;;;4917875;29;19950;-67
2022/09/11 05:14:31;;;;;;;;;;;19.90;65.80;;;;;;4917950;29;19985;-68
2022/09/11 05:16:57;;;;;;;;;;;19.90;65.60;;;;;;4917621;29;19917;-68
2022/09/11 05:19:24;;;;;;;;;;;19.80;65.90;;;;;;4917602;29;19923;-68
2022/09/11 05:21:50;;;;;;;;;;;19.80;65.90;;;;;;4917856;29;19911;-69
2022/09/11 05:24:16;;;;;;;;;;;19.80;65.90;;;;;;4903525;29;20272;-69
2022/09/11 05:26:41;;;;;;;;;;;19.80;65.70;;;;;;4928980;29;19922;-68
2022/09/11 05:29:10;;;;;;;;;;;19.80;65.90;;;;;;4913813;29;19957;-69
2022/09/11 05:31:36;;;;;;;;;;;19.90;66.10;;;;;;4917505;29;19942;-68
2022/09/11 05:34:02;;;;;;;;;;;19.80;66.50;;;;;;4917368;29;19965;-68
2022/09/11 05:36:29;;;;;;;;;;;19.70;67.50;;;;;;4917392;29;19911;-69
2022/09/11 05:38:55;;;;;;;;;;;19.60;68.20;;;;;;4917256;29;19926;-69
2022/09/11 05:41:21;;;;;;;;;;;19.70;66.80;;;;;;4917287;29;20257;-69
2022/09/11 05:43:47;;;;;;;;;;;19.40;68.50;;;;;;4917542;29;19944;-68
2022/09/11 05:46:16;;;;;;;;;;;19.50;68.90;;;;;;4916949;29;20002;-68
2022/09/11 05:48:42;;;;;;;;;;;19.60;69.40;;;;;;4917164;29;20371;-68
2022/09/11 05:51:12;;;;;;;;;;;19.60;69.60;;;;;;4917073;29;19922;-70
2022/09/11 05:53:38;;;;;;;;;;;19.50;70.20;;;;;;4901282;29;19911;-71
2022/09/11 05:56:07;;;;;;;;;;;19.50;70.50;;;;;;4917098;29;19922;-73
2022/09/11 05:58:33;;;;;;;;;;;19.50;71.30;;;;;;4916312;29;20402;-73
2022/09/11 06:01:09;;;;;;;;;;;19.40;72.20;;;;;;4916761;29;19946;-71
2022/09/11 06:03:35;;;;;;;;;;;19.40;71.70;;;;;;4916871;29;19911;-68
2022/09/11 06:06:03;;;;;;;;;;;19.40;71.90;;;;;;4917217;29;19919;-70
2022/09/11 06:08:29;;;;;;;;;;;19.40;73.10;;;;;;4917021;29;20324;-72
2022/09/11 06:10:57;;;;;;;;;;;19.30;73.50;;;;;;4916635;29;19930;-72
2022/09/11 06:13:28;;;;;;;;;;;19.60;73.70;;;;;;4916699;29;19915;-70
2022/09/11 06:15:53;;;;;;;;;;;20.10;71.90;;;;;;4916296;29;19911;-71
2022/09/11 06:18:19;;;;;;;;;;;20.50;71.20;;;;;;4916891;29;19927;-71
2022/09/11 06:20:53;;;;;;;;;;;20.90;70.00;;;;;;4916648;29;19953;-71
2022/09/11 06:23:19;;;;;;;;;;;21.30;68.10;;;;;;4899421;29;19915;-67
2022/09/11 06:25:44;;;;;;;;;;;21.60;65.40;;;;;;4917155;29;19912;-71
2022/09/11 06:28:10;;;;;;;;;;;22.00;63.90;;;;;;4917494;29;20391;-66
2022/09/11 06:30:35;;;;;;;;;;;22.40;62.80;;;;;;4917615;29;20530;-66
2022/09/11 06:33:01;;;;;;;;;;;22.70;62.70;;;;;;4918255;29;20010;-70
2022/09/11 06:35:27;;;;;;;;;;;22.90;60.40;;;;;;4916835;29;20009;-69
2022/09/11 06:37:53;;;;;;;;;;;23.20;59.90;;;;;;4917093;29;19974;-69
2022/09/11 06:40:19;;;;;;;;;;;23.50;59.50;;;;;;4930336;29;19955;-71
2022/09/11 06:42:46;;;;;;;;;;;23.70;59.20;;;;;;4926476;29;19915;-68
2022/09/11 06:45:11;;;;;;;;;;;24.00;58.40;;;;;;4927122;29;19978;-66
2022/09/11 06:47:37;;;;;;;;;;;24.10;57.60;;;;;;4927388;29;19922;-71
2022/09/11 06:50:04;;;;;;;;;;;24.30;57.00;;;;;;4927375;29;20291;-67
2022/09/11 06:52:32;;;;;;;;;;;24.30;55.50;;;;;;4915332;29;20290;-65
2022/09/11 06:54:57;;;;;;;;;;;24.40;56.10;;;;;;4924740;29;19911;-65
2022/09/11 06:57:23;;;;;;;;;;;24.50;55.10;;;;;;4928814;29;19912;-64
2022/09/11 06:59:48;;;;;;;;;;;24.50;55.10;;;;;;4927110;29;19927;-65
2022/09/11 07:02:14;;;;;;;;;;;24.60;54.70;;;;;;4926126;29;19977;-66
2022/09/11 07:04:41;;;;;;;;;;;24.70;54.70;;;;;;4926295;29;19916;-64
2022/09/11 07:07:06;;;;;;;;;;;24.80;54.70;;;;;;4926861;29;19917;-68
2022/09/11 07:09:32;;;;;;;;;;;24.80;54.60;;;;;;4922655;29;19927;-68
2022/09/11 07:11:57;;;;;;;;;;;24.90;54.30;;;;;;4925088;29;20014;-67
2022/09/11 07:14:23;;;;;;;;;;;25.00;54.20;;;;;;4924698;29;19912;-67
2022/09/11 07:16:49;;;;;;;;;;;25.10;53.60;;;;;;4919838;29;19962;-65
2022/09/11 07:19:17;;;;;;;;;;;25.10;52.40;;;;;;4917877;29;19923;-64
2022/09/11 07:21:43;;;;;;;;;;;25.10;52.30;;;;;;4916982;29;19915;-64
2022/09/11 07:24:08;;;;;;;;;;;25.20;52.70;;;;;;4911236;29;19927;-64
2022/09/11 07:26:35;;;;;;;;;;;25.30;52.00;;;;;;4921434;29;19926;-64
2022/09/11 07:29:01;;;;;;;;;;;25.30;51.50;;;;;;4923764;29;20232;-68
2022/09/11 07:31:28;;;;;;;;;;;25.40;51.50;;;;;;4925217;29;19939;-72
2022/09/11 07:33:54;;;;;;;;;;;25.40;51.30;;;;;;4928125;29;19927;-69
2022/09/11 07:36:21;;;;;;;;;;;25.50;50.90;;;;;;4924183;29;19978;-70
2022/09/11 07:38:47;;;;;;;;;;;25.50;50.50;;;;;;4923165;29;20045;-69
2022/09/11 07:41:14;;;;;;;;;;;25.30;49.70;;;;;;4923028;29;19912;-69
2022/09/11 07:43:47;;;;;;;;;;;25.30;49.80;;;;;;4921409;29;19923;-69
2022/09/11 07:46:13;;;;;;;;;;;25.30;49.10;;;;;;4934138;29;19938;-67
2022/09/11 07:48:39;;;;;;;;;;;25.10;48.80;;;;;;4924890;29;19919;-68
2022/09/11 07:51:06;;;;;;;;;;;25.20;49.20;;;;;;4928810;29;19911;-70
2022/09/11 07:53:38;;;;;;;;;;;25.30;49.30;;;;;;4915872;29;19911;-68
2022/09/11 07:56:05;;;;;;;;;;;25.40;49.60;;;;;;4928564;29;19911;-64
2022/09/11 07:58:32;;;;;;;;;;;25.50;49.60;;;;;;4927060;29;20327;-69
2022/09/11 08:00:58;;;;;;;;;;;25.60;50.10;;;;;;4922790;29;19915;-64
2022/09/11 08:03:23;;;;;;;;;;;25.70;50.60;;;;;;4923080;29;19915;-69
2022/09/11 08:05:49;;;;;;;;;;;25.70;50.00;;;;;;4920521;29;19918;-68
2022/09/11 08:08:15;;;;;;;;;;;25.80;50.10;;;;;;4919396;29;19923;-65
2022/09/11 08:10:40;;;;;;;;;;;25.80;49.00;;;;;;4918474;29;19931;-63
2022/09/11 08:13:06;;;;;;;;;;;25.90;49.40;;;;;;4918337;29;19919;-63
2022/09/11 08:15:31;;;;;;;;;;;26.00;48.70;;;;;;4918290;29;19916;-65
2022/09/11 08:17:57;;;;;;;;;;;26.00;48.80;;;;;;4919094;29;20368;-67
2022/09/11 08:20:23;;;;;;;;;;;26.00;48.60;;;;;;4918467;29;19911;-68
2022/09/11 08:22:48;;;;;;;;;;;26.10;47.60;;;;;;4909967;29;19915;-68
2022/09/11 08:25:14;;;;;;;;;;;26.10;47.80;;;;;;4918729;29;19915;-68
2022/09/11 08:27:39;;;;;;;;;;;26.10;47.60;;;;;;4918803;29;19918;-68
2022/09/11 08:30:05;;;;;;;;;;;26.10;47.70;;;;;;4918605;29;20006;-66
2022/09/11 08:32:31;;;;;;;;;;;26.10;47.20;;;;;;4918624;29;19915;-67
2022/09/11 08:34:57;;;;;;;;;;;26.00;47.90;;;;;;4918759;29;20001;-64
2022/09/11 08:37:23;;;;;;;;;;;25.90;48.00;;;;;;4918625;29;20566;-64
2022/09/11 08:39:48;;;;;;;;;;;25.80;49.90;;;;;;4918034;29;20339;-65
2022/09/11 08:42:15;;;;;;;;;;;25.70;50.80;;;;;;4918693;29;19915;-66
2022/09/11 08:44:48;;;;;;;;;;;25.70;49.50;;;;;;4918480;29;20394;-65
2022/09/11 08:47:17;;;;;;;;;;;25.70;50.30;;;;;;4918148;29;19911;-65
2022/09/11 08:49:48;;;;;;;;;;;25.70;51.00;;;;;;4918107;29;19911;-65
2022/09/11 08:52:14;;;;;;;;;;;25.70;50.40;;;;;;4918391;29;19915;-65
2022/09/11 08:54:41;;;;;;;;;;;25.70;52.30;;;;;;4908056;29;19919;-67
2022/09/11 08:57:12;;;;;;;;;;;25.60;52.40;;;;;;4918388;29;19915;-65
2022/09/11 08:59:49;;;;;;;;;;;25.60;51.30;;;;;;4918032;29;19923;-65
2022/09/11 09:02:30;;;;;;;;;;;25.60;51.10;;;;;;4918153;29;19930;-65
2022/09/11 09:04:55;;;;;;;;;;;25.60;51.50;;;;;;4918381;29;19921;-65
2022/09/11 09:07:31;;;;;;;;;;;25.50;51.90;;;;;;4918102;29;20372;-66
2022/09/11 09:10:02;;;;;;;;;;;25.40;51.80;;;;;;4917757;29;19975;-69
2022/09/11 09:12:28;;;;;;;;;;;25.40;51.90;;;;;;4917809;29;20009;-65
2022/09/11 09:14:53;;;;;;;;;;;25.40;52.20;;;;;;4917954;29;20435;-65
2022/09/11 09:17:25;;;;;;;;;;;25.40;52.20;;;;;;4917693;29;19911;-65
2022/09/11 09:19:56;;;;;;;;;;;25.40;52.80;;;;;;4917860;29;19919;-65
2022/09/11 09:22:40;;;;;;;;;;;25.40;53.30;;;;;;4902397;29;19955;-63
2022/09/11 09:25:10;;;;;;;;;;;25.50;53.10;;;;;;4917628;29;19915;-63
2022/09/11 09:27:39;;;;;;;;;;;25.40;52.70;;;;;;4917576;29;19915;-64
2022/09/11 09:30:12;;;;;;;;;;;25.40;52.90;;;;;;4917522;29;19918;-64
2022/09/11 09:32:43;;;;;;;;;;;25.30;52.80;;;;;;4917639;29;19915;-66
2022/09/11 09:35:14;;;;;;;;;;;25.30;53.60;;;;;;4917720;29;19919;-64
2022/09/11 09:37:39;;;;;;;;;;;25.30;53.00;;;;;;4917385;29;20383;-64
2022/09/11 09:40:08;;;;;;;;;;;25.30;52.80;;;;;;4917210;29;19935;-64
2022/09/11 09:42:48;;;;;;;;;;;25.30;51.70;;;;;;4917524;29;20272;-63
2022/09/11 09:45:25;;;;;;;;;;;25.10;51.80;;;;;;4917461;29;20374;-67
2022/09/11 09:47:51;;;;;;;;;;;24.90;54.40;;;;;;4917141;29;20331;-64
2022/09/11 09:50:21;;;;;;;;;;;24.80;53.30;;;;;;4917279;29;19942;-66
2022/09/11 09:52:48;;;;;;;;;;;24.80;53.40;;;;;;4915657;29;19919;-65
2022/09/11 09:55:15;;;;;;;;;;;24.80;53.50;;;;;;4917172;29;19915;-64
2022/09/11 09:57:42;;;;;;;;;;;24.80;54.00;;;;;;4917203;29;20260;-65
2022/09/11 10:00:08;;;;;;;;;;;24.80;54.20;;;;;;4916844;29;20014;-64
2022/09/11 10:02:54;;;;;;;;;;;24.80;52.70;;;;;;4916857;29;20010;-63
2022/09/11 10:05:27;;;;;;;;;;;24.80;54.10;;;;;;4917195;29;19923;-64
2022/09/11 10:07:57;;;;;;;;;;;24.80;54.60;;;;;;4916942;29;20724;-63
2022/09/11 10:10:35;;;;;;;;;;;24.80;54.80;;;;;;4916594;29;19930;-64
2022/09/11 10:13:07;;;;;;;;;;;24.80;54.90;;;;;;4916884;29;19915;-64
2022/09/11 10:15:39;;;;;;;;;;;24.80;54.40;;;;;;4917172;29;19962;-64
2022/09/11 10:18:23;;;;;;;;;;;24.80;54.20;;;;;;4916801;29;19962;-63
2022/09/11 10:20:50;;;;;;;;;;;24.80;54.30;;;;;;4916514;29;20006;-65
2022/09/11 10:23:28;;;;;;;;;;;24.80;54.90;;;;;;4905405;29;19918;-64
2022/09/11 10:25:54;;;;;;;;;;;24.80;53.60;;;;;;4916822;29;19922;-64
2022/09/11 10:28:30;;;;;;;;;;;24.90;53.70;;;;;;4916819;29;20005;-65
2022/09/11 10:30:58;;;;;;;;;;;24.90;53.80;;;;;;4916566;29;19911;-64
2022/09/11 10:33:28;;;;;;;;;;;24.80;53.20;;;;;;4916735;29;20415;-63
2022/09/11 10:35:55;;;;;;;;;;;24.80;54.30;;;;;;4916413;29;19982;-64
2022/09/11 10:38:25;;;;;;;;;;;24.80;53.30;;;;;;4916495;29;19915;-64
2022/09/11 10:40:53;;;;;;;;;;;24.80;53.20;;;;;;4916503;29;19915;-63
2022/09/11 10:43:23;;;;;;;;;;;24.80;53.40;;;;;;4916432;29;19925;-63
2022/09/11 10:46:21;;;;;;;;;;;24.80;53.20;;;;;;4916294;29;19934;-69
2022/09/11 10:48:54;;;;;;;;;;;24.80;52.80;;;;;;4935930;29;20367;-66
2022/09/11 10:51:20;;;;;;;;;;;24.80;52.90;;;;;;4915893;29;19978;-63
2022/09/11 10:53:57;;;;;;;;;;;24.80;52.60;;;;;;4902696;29;19978;-64
2022/09/11 10:56:23;;;;;;;;;;;24.80;52.40;;;;;;4915140;29;19911;-64
2022/09/11 10:58:51;;;;;;;;;;;24.80;53.20;;;;;;4915037;29;19927;-65
2022/09/11 11:01:16;;;;;;;;;;;24.80;51.80;;;;;;4914923;29;19934;-68
2022/09/11 11:03:42;;;;;;;;;;;24.80;51.20;;;;;;4918765;29;20364;-64
2022/09/11 11:06:18;;;;;;;;;;;24.90;52.90;;;;;;4913910;29;19915;-65
2022/09/11 11:08:57;;;;;;;;;;;24.90;52.20;;;;;;4913541;29;19926;-66
2022/09/11 11:11:26;;;;;;;;;;;24.90;52.40;;;;;;4912988;29;19915;-65
2022/09/11 11:14:10;;;;;;;;;;;24.80;52.80;;;;;;4914130;29;20276;-68
2022/09/11 11:16:39;;;;;;;;;;;24.90;52.60;;;;;;4914070;29;19966;-67
2022/09/11 11:19:05;;;;;;;;;;;24.90;52.90;;;;;;4915493;29;19978;-62
2022/09/11 11:22:00;;;;;;;;;;;24.90;52.20;;;;;;4915716;29;19915;-61
2022/09/11 11:24:41;;;;;;;;;;;24.90;50.50;;;;;;4932901;28;19946;-63
2022/09/11 11:27:15;;;;;;;;;;;24.90;52.00;;;;;;4915021;29;19999;-71
2022/09/11 11:29:59;;;;;;;;;;;24.90;51.10;;;;;;4914921;29;19911;-65
2022/09/11 11:32:29;;;;;;;;;;;24.90;50.70;;;;;;4911092;29;19911;-63
2022/09/11 11:35:00;;;;;;;;;;;24.90;51.60;;;;;;4923755;29;19978;-64
2022/09/11 11:37:35;;;;;;;;;;;24.90;50.30;;;;;;4918390;29;19918;-65
2022/09/11 11:40:04;;;;;;;;;;;24.90;52.00;;;;;;4913112;29;19923;-63
2022/09/11 11:42:36;;;;;;;;;;;25.00;52.70;;;;;;4914804;29;19911;-65
2022/09/11 11:45:07;;;;;;;;;;;25.00;53.20;;;;;;4914902;29;20439;-65
2022/09/11 11:47:35;;;;;;;;;;;24.90;52.30;;;;;;4914622;29;20005;-63
2022/09/11 11:50:30;;;;;;;;;;;24.90;55.00;;;;;;4907235;29;19917;-64
2022/09/11 11:53:00;;;;;;;;;;;24.90;52.60;;;;;;4908129;28;19915;-63
2022/09/11 11:55:31;;;;;;;;;;;25.00;52.60;;;;;;4914740;29;19918;-62
2022/09/11 11:57:56;;;;;;;;;;;25.00;52.20;;;;;;4914473;29;19915;-62
2022/09/11 12:00:22;;;;;;;;;;;25.10;54.10;;;;;;4914916;29;19923;-63
2022/09/11 12:02:53;;;;;;;;;;;25.10;53.10;;;;;;4914611;29;19982;-63
2022/09/11 12:05:29;;;;;;;;;;;25.10;53.00;;;;;;4914199;29;19947;-62
2022/09/11 12:07:55;;;;;;;;;;;25.10;51.60;;;;;;4914525;29;19922;-63
2022/09/11 12:10:26;;;;;;;;;;;25.10;51.40;;;;;;4914244;29;20336;-63
2022/09/11 12:12:54;;;;;;;;;;;25.10;50.20;;;;;;4914963;29;19911;-62
2022/09/11 12:15:21;;;;;;;;;;;25.20;50.90;;;;;;4916411;29;20397;-62
2022/09/11 12:17:48;;;;;;;;;;;25.10;52.10;;;;;;4917985;29;19911;-64
2022/09/11 12:20:29;;;;;;;;;;;25.10;52.00;;;;;;4917979;29;20342;-62
2022/09/11 12:22:55;;;;;;;;;;;25.20;51.70;;;;;;4900760;29;19922;-65
2022/09/11 12:25:20;;;;;;;;;;;25.20;50.80;;;;;;4918181;29;19915;-65
2022/09/11 12:27:47;;;;;;;;;;;25.20;51.90;;;;;;4917635;29;20265;-63
2022/09/11 12:30:15;;;;;;;;;;;25.10;52.00;;;;;;4918099;29;19963;-64
2022/09/11 12:32:42;;;;;;;;;;;25.10;52.50;;;;;;4917287;29;20434;-62
2022/09/11 12:35:14;;;;;;;;;;;25.10;53.00;;;;;;4917114;29;20376;-62
2022/09/11 12:37:40;;;;;;;;;;;25.10;54.10;;;;;;4916223;29;19915;-62
2022/09/11 12:40:19;;;;;;;;;;;25.10;53.80;;;;;;4906288;29;19926;-62
2022/09/11 12:42:46;;;;;;;;;;;25.10;53.70;;;;;;4914667;29;19957;-64
2022/09/11 12:45:33;;;;;;;;;;;25.10;53.50;;;;;;4916469;29;19915;-63
2022/09/11 12:48:06;;;;;;;;;;;25.10;54.40;;;;;;4916409;29;19915;-62
2022/09/11 12:50:33;;;;;;;;;;;25.10;53.70;;;;;;4916305;29;19919;-63
2022/09/11 12:53:02;;;;;;;;;;;25.20;54.60;;;;;;4907917;29;20011;-63
2022/09/11 12:55:38;;;;;;;;;;;25.20;54.80;;;;;;4915764;29;19921;-62
2022/09/11 12:58:23;;;;;;;;;;;25.20;54.30;;;;;;4916116;29;19962;-62
2022/09/11 13:00:58;;;;;;;;;;;25.20;54.00;;;;;;4916049;29;19923;-63
2022/09/11 13:03:26;;;;;;;;;;;25.10;55.00;;;;;;4916767;29;20003;-62
2022/09/11 13:05:54;;;;;;;;;;;25.10;54.50;;;;;;4916046;29;19938;-62
2022/09/11 13:08:22;;;;;;;;;;;25.10;54.30;;;;;;4915483;29;19972;-61
2022/09/11 13:10:48;;;;;;;;;;;25.20;54.00;;;;;;4915708;29;20299;-65
2022/09/11 13:13:34;;;;;;;;;;;25.20;54.40;;;;;;4915825;29;19915;-64
2022/09/11 13:16:30;;;;;;;;;;;25.10;54.90;;;;;;4908613;29;19926;-63
2022/09/11 13:19:16;;;;;;;;;;;25.10;55.40;;;;;;4911498;29;20268;-62
2022/09/11 13:21:43;;;;;;;;;;;25.20;55.30;;;;;;4916525;29;19915;-63
2022/09/11 13:24:25;;;;;;;;;;;25.20;55.90;;;;;;4908078;29;20383;-64
2022/09/11 13:26:54;;;;;;;;;;;25.20;54.60;;;;;;4914500;29;19919;-64
2022/09/11 13:29:21;;;;;;;;;;;25.20;55.30;;;;;;4914978;29;19926;-68
2022/09/11 13:31:47;;;;;;;;;;;25.10;55.90;;;;;;4914312;29;19979;-63
2022/09/11 13:34:15;;;;;;;;;;;25.20;56.20;;;;;;4914107;29;19915;-66
2022/09/11 13:36:40;;;;;;;;;;;25.10;56.60;;;;;;4915071;29;20375;-65
2022/09/11 13:39:06;;;;;;;;;;;25.10;56.90;;;;;;4914998;29;19923;-67
2022/09/11 13:41:36;;;;;;;;;;;25.10;56.20;;;;;;4916029;29;19919;-64
2022/09/11 13:44:02;;;;;;;;;;;25.10;56.50;;;;;;4916361;29;19996;-65
2022/09/11 13:46:30;;;;;;;;;;;25.30;56.80;;;;;;4915575;29;20358;-64
2022/09/11 13:49:16;;;;;;;;;;;25.00;54.60;;;;;;4914687;29;19915;-65
2022/09/11 13:51:45;;;;;;;;;;;24.60;56.20;;;;;;4911976;29;20276;-65
2022/09/11 13:54:16;;;;;;;;;;;24.50;58.20;;;;;;4909915;29;19970;-64
2022/09/11 13:57:01;;;;;;;;;;;24.80;57.60;;;;;;4915917;29;19950;-65
2022/09/11 13:59:43;;;;;;;;;;;24.80;54.60;;;;;;4915977;29;19926;-66
2022/09/11 14:02:26;;;;;;;;;;;25.00;55.50;;;;;;4915593;29;19925;-62
2022/09/11 14:04:55;;;;;;;;;;;25.10;54.40;;;;;;4915459;29;20014;-62
2022/09/11 14:07:21;;;;;;;;;;;25.20;55.90;;;;;;4915880;29;19911;-63
2022/09/11 14:09:50;;;;;;;;;;;25.10;56.90;;;;;;4915238;29;20279;-63
2022/09/11 14:12:19;;;;;;;;;;;25.30;56.70;;;;;;4915619;29;20435;-63
2022/09/11 14:14:48;;;;;;;;;;;25.40;55.20;;;;;;4915597;29;19915;-63
2022/09/11 14:17:16;;;;;;;;;;;25.40;54.20;;;;;;4915728;29;19962;-62
2022/09/11 14:19:43;;;;;;;;;;;25.40;55.00;;;;;;4915481;29;19924;-63
2022/09/11 14:22:15;;;;;;;;;;;25.40;56.40;;;;;;4915423;29;19955;-63
2022/09/11 14:24:50;;;;;;;;;;;25.50;54.70;;;;;;4898909;29;19915;-62
2022/09/11 14:27:33;;;;;;;;;;;25.40;53.60;;;;;;4915233;29;20384;-62